Terminal Aerodrome Forecast
Issued by NWS

Home | Current Version | Previous Version | Text Only | Print | Product List | Glossary Off
Versions: 1 2 3 4 5 6 7 8 9 10 11 12 13 14 15 16 17 18

000
FTUS43 KMPX 221500 AAA
TAFRWF
TAF AMD
KRWF 221529Z 2215/2312 14014KT 2SM -RA BR OVC003
      TEMPO 2216/2219 4SM -RA BR OVC005
     FM230000 12008KT 3SM -RASN BR OVC003
     FM230300 06010KT 2SM -SN BR OVC003=

USA.gov is the U.S. government's official web portal to all federal, state and local government web resources and services.